sensor_id;sensor_type;location;lat;lon;timestamp;P1;durP1;ratioP1;P2;durP2;ratioP2
19253;SDS011;9761;50.926;5.330;2022-10-29T00:00:49;9.87;;;6.40;;
19253;SDS011;9761;50.926;5.330;2022-10-29T00:03:21;16.70;;;7.20;;
19253;SDS011;9761;50.926;5.330;2022-10-29T00:05:58;10.30;;;6.77;;
19253;SDS011;9761;50.926;5.330;2022-10-29T00:08:27;12.20;;;6.87;;
19253;SDS011;9761;50.926;5.330;2022-10-29T00:10:56;12.03;;;6.13;;
19253;SDS011;9761;50.926;5.330;2022-10-29T00:13:34;16.20;;;6.60;;
19253;SDS011;9761;50.926;5.330;2022-10-29T00:16:04;12.97;;;6.23;;
19253;SDS011;9761;50.926;5.330;2022-10-29T00:18:32;14.80;;;7.80;;
19253;SDS011;9761;50.926;5.330;2022-10-29T00:21:00;11.77;;;6.67;;
19253;SDS011;9761;50.926;5.330;2022-10-29T00:23:27;16.70;;;7.13;;
19253;SDS011;9761;50.926;5.330;2022-10-29T00:25:55;10.77;;;6.97;;
19253;SDS011;9761;50.926;5.330;2022-10-29T00:28:24;17.47;;;7.53;;
19253;SDS011;9761;50.926;5.330;2022-10-29T00:30:52;13.53;;;7.33;;
19253;SDS011;9761;50.926;5.330;2022-10-29T00:33:21;14.80;;;7.50;;
19253;SDS011;9761;50.926;5.330;2022-10-29T00:35:55;19.30;;;8.07;;
19253;SDS011;9761;50.926;5.330;2022-10-29T00:38:23;13.93;;;7.90;;
19253;SDS011;9761;50.926;5.330;2022-10-29T00:40:53;13.70;;;7.67;;
19253;SDS011;9761;50.926;5.330;2022-10-29T00:43:21;13.87;;;7.30;;
19253;SDS011;9761;50.926;5.330;2022-10-29T00:45:50;18.67;;;8.17;;
19253;SDS011;9761;50.926;5.330;2022-10-29T00:48:21;13.73;;;7.40;;
19253;SDS011;9761;50.926;5.330;2022-10-29T00:50:52;12.97;;;6.93;;
19253;SDS011;9761;50.926;5.330;2022-10-29T00:53:20;12.53;;;7.00;;
19253;SDS011;9761;50.926;5.330;2022-10-29T00:55:50;17.37;;;7.07;;
19253;SDS011;9761;50.926;5.330;2022-10-29T00:58:17;15.03;;;6.97;;
19253;SDS011;9761;50.926;5.330;2022-10-29T01:00:45;14.03;;;7.50;;
19253;SDS011;9761;50.926;5.330;2022-10-29T01:03:12;13.10;;;7.47;;
19253;SDS011;9761;50.926;5.330;2022-10-29T01:05:41;19.30;;;7.87;;
19253;SDS011;9761;50.926;5.330;2022-10-29T01:08:10;15.27;;;7.03;;
19253;SDS011;9761;50.926;5.330;2022-10-29T01:10:44;11.30;;;7.33;;
19253;SDS011;9761;50.926;5.330;2022-10-29T01:13:32;14.93;;;7.53;;
19253;SDS011;9761;50.926;5.330;2022-10-29T01:16:10;14.57;;;7.87;;
19253;SDS011;9761;50.926;5.330;2022-10-29T01:18:46;10.57;;;7.10;;
19253;SDS011;9761;50.926;5.330;2022-10-29T01:21:30;11.63;;;7.80;;
19253;SDS011;9761;50.926;5.330;2022-10-29T01:24:15;18.63;;;8.07;;
19253;SDS011;9761;50.926;5.330;2022-10-29T01:27:07;14.80;;;8.07;;
19253;SDS011;9761;50.926;5.330;2022-10-29T01:30:02;13.87;;;7.37;;
19253;SDS011;9761;50.926;5.330;2022-10-29T01:32:38;13.60;;;7.67;;
19253;SDS011;9761;50.926;5.330;2022-10-29T01:35:17;13.50;;;8.03;;
19253;SDS011;9761;50.926;5.330;2022-10-29T01:37:57;13.43;;;7.47;;
19253;SDS011;9761;50.926;5.330;2022-10-29T01:40:36;11.27;;;7.17;;
19253;SDS011;9761;50.926;5.330;2022-10-29T01:43:10;13.20;;;7.70;;
19253;SDS011;9761;50.926;5.330;2022-10-29T01:45:44;13.40;;;7.97;;
19253;SDS011;9761;50.926;5.330;2022-10-29T01:48:20;16.27;;;7.60;;
19253;SDS011;9761;50.926;5.330;2022-10-29T01:50:53;12.90;;;9.00;;
19253;SDS011;9761;50.926;5.330;2022-10-29T01:53:23;14.60;;;8.77;;
19253;SDS011;9761;50.926;5.330;2022-10-29T01:55:59;10.77;;;7.53;;
19253;SDS011;9761;50.926;5.330;2022-10-29T01:58:29;16.20;;;8.60;;
19253;SDS011;9761;50.926;5.330;2022-10-29T02:00:57;16.37;;;8.50;;
19253;SDS011;9761;50.926;5.330;2022-10-29T02:03:36;13.30;;;7.90;;
19253;SDS011;9761;50.926;5.330;2022-10-29T02:06:16;19.77;;;7.93;;
19253;SDS011;9761;50.926;5.330;2022-10-29T02:08:54;12.13;;;8.10;;
19253;SDS011;9761;50.926;5.330;2022-10-29T02:11:30;18.20;;;8.20;;
19253;SDS011;9761;50.926;5.330;2022-10-29T02:14:03;16.57;;;9.00;;
19253;SDS011;9761;50.926;5.330;2022-10-29T02:16:34;17.83;;;9.17;;
19253;SDS011;9761;50.926;5.330;2022-10-29T02:19:05;12.37;;;8.27;;
19253;SDS011;9761;50.926;5.330;2022-10-29T02:21:32;14.27;;;8.30;;
19253;SDS011;9761;50.926;5.330;2022-10-29T02:23:58;17.87;;;9.00;;
19253;SDS011;9761;50.926;5.330;2022-10-29T02:26:25;15.63;;;9.30;;
19253;SDS011;9761;50.926;5.330;2022-10-29T02:28:54;13.90;;;8.20;;
19253;SDS011;9761;50.926;5.330;2022-10-29T02:31:21;13.30;;;8.30;;
19253;SDS011;9761;50.926;5.330;2022-10-29T02:33:50;16.33;;;8.03;;
19253;SDS011;9761;50.926;5.330;2022-10-29T02:36:20;13.03;;;8.03;;
19253;SDS011;9761;50.926;5.330;2022-10-29T02:38:47;17.90;;;8.80;;
19253;SDS011;9761;50.926;5.330;2022-10-29T02:41:14;11.87;;;9.10;;
19253;SDS011;9761;50.926;5.330;2022-10-29T02:43:41;16.83;;;8.30;;
19253;SDS011;9761;50.926;5.330;2022-10-29T02:46:12;14.87;;;9.03;;
19253;SDS011;9761;50.926;5.330;2022-10-29T02:48:41;20.63;;;10.27;;
19253;SDS011;9761;50.926;5.330;2022-10-29T02:51:08;19.30;;;10.27;;
19253;SDS011;9761;50.926;5.330;2022-10-29T02:53:36;15.33;;;9.43;;
19253;SDS011;9761;50.926;5.330;2022-10-29T02:56:04;18.00;;;9.77;;
19253;SDS011;9761;50.926;5.330;2022-10-29T02:58:33;15.97;;;10.20;;
19253;SDS011;9761;50.926;5.330;2022-10-29T03:01:02;15.17;;;10.00;;
19253;SDS011;9761;50.926;5.330;2022-10-29T03:03:30;15.83;;;9.23;;
19253;SDS011;9761;50.926;5.330;2022-10-29T03:05:57;17.87;;;10.27;;
19253;SDS011;9761;50.926;5.330;2022-10-29T03:08:24;19.20;;;10.33;;
19253;SDS011;9761;50.926;5.330;2022-10-29T03:10:54;17.37;;;10.13;;
19253;SDS011;9761;50.926;5.330;2022-10-29T03:13:25;15.17;;;9.17;;
19253;SDS011;9761;50.926;5.330;2022-10-29T03:15:52;16.67;;;10.27;;
19253;SDS011;9761;50.926;5.330;2022-10-29T03:18:18;14.00;;;9.00;;
19253;SDS011;9761;50.926;5.330;2022-10-29T03:20:47;14.07;;;9.70;;
19253;SDS011;9761;50.926;5.330;2022-10-29T03:23:13;17.77;;;9.43;;
19253;SDS011;9761;50.926;5.330;2022-10-29T03:25:40;15.60;;;8.67;;
19253;SDS011;9761;50.926;5.330;2022-10-29T03:28:09;15.93;;;9.53;;
19253;SDS011;9761;50.926;5.330;2022-10-29T03:30:36;13.03;;;8.97;;
19253;SDS011;9761;50.926;5.330;2022-10-29T03:33:04;19.77;;;9.33;;
19253;SDS011;9761;50.926;5.330;2022-10-29T03:35:33;17.87;;;9.77;;
19253;SDS011;9761;50.926;5.330;2022-10-29T03:38:00;15.80;;;9.33;;
19253;SDS011;9761;50.926;5.330;2022-10-29T03:40:27;20.63;;;10.43;;
19253;SDS011;9761;50.926;5.330;2022-10-29T03:42:54;14.57;;;9.03;;
19253;SDS011;9761;50.926;5.330;2022-10-29T03:45:22;18.37;;;9.07;;
19253;SDS011;9761;50.926;5.330;2022-10-29T03:47:49;14.10;;;9.67;;
19253;SDS011;9761;50.926;5.330;2022-10-29T03:50:17;15.77;;;9.53;;
19253;SDS011;9761;50.926;5.330;2022-10-29T03:52:45;16.93;;;9.77;;
19253;SDS011;9761;50.926;5.330;2022-10-29T03:55:13;17.53;;;8.83;;
19253;SDS011;9761;50.926;5.330;2022-10-29T03:57:41;12.17;;;8.87;;
19253;SDS011;9761;50.926;5.330;2022-10-29T04:00:09;14.50;;;9.20;;
19253;SDS011;9761;50.926;5.330;2022-10-29T04:02:38;17.03;;;9.57;;
19253;SDS011;9761;50.926;5.330;2022-10-29T04:05:05;21.60;;;9.00;;
19253;SDS011;9761;50.926;5.330;2022-10-29T04:07:34;16.37;;;9.73;;
19253;SDS011;9761;50.926;5.330;2022-10-29T04:10:03;15.27;;;9.07;;
19253;SDS011;9761;50.926;5.330;2022-10-29T04:12:32;15.43;;;9.97;;
19253;SDS011;9761;50.926;5.330;2022-10-29T04:14:59;15.73;;;8.67;;
19253;SDS011;9761;50.926;5.330;2022-10-29T04:17:26;15.03;;;9.10;;
19253;SDS011;9761;50.926;5.330;2022-10-29T04:19:55;14.83;;;9.60;;
19253;SDS011;9761;50.926;5.330;2022-10-29T04:22:22;17.83;;;9.57;;
19253;SDS011;9761;50.926;5.330;2022-10-29T04:24:49;15.23;;;9.20;;
19253;SDS011;9761;50.926;5.330;2022-10-29T04:27:16;15.67;;;10.20;;
19253;SDS011;9761;50.926;5.330;2022-10-29T04:29:43;17.00;;;10.03;;
19253;SDS011;9761;50.926;5.330;2022-10-29T04:32:10;13.80;;;8.53;;
19253;SDS011;9761;50.926;5.330;2022-10-29T04:34:37;16.43;;;9.70;;
19253;SDS011;9761;50.926;5.330;2022-10-29T04:37:05;15.77;;;9.23;;
19253;SDS011;9761;50.926;5.330;2022-10-29T04:39:32;15.17;;;8.97;;
19253;SDS011;9761;50.926;5.330;2022-10-29T04:41:59;16.97;;;9.17;;
19253;SDS011;9761;50.926;5.330;2022-10-29T04:44:26;14.07;;;9.00;;
19253;SDS011;9761;50.926;5.330;2022-10-29T04:46:55;13.77;;;9.13;;
19253;SDS011;9761;50.926;5.330;2022-10-29T04:49:22;17.40;;;10.03;;
19253;SDS011;9761;50.926;5.330;2022-10-29T04:51:49;17.57;;;9.67;;
19253;SDS011;9761;50.926;5.330;2022-10-29T04:54:20;13.33;;;8.93;;
19253;SDS011;9761;50.926;5.330;2022-10-29T04:56:49;12.53;;;8.43;;
19253;SDS011;9761;50.926;5.330;2022-10-29T04:59:16;13.77;;;9.30;;
19253;SDS011;9761;50.926;5.330;2022-10-29T05:01:44;13.90;;;8.73;;
19253;SDS011;9761;50.926;5.330;2022-10-29T05:04:11;20.23;;;9.53;;
19253;SDS011;9761;50.926;5.330;2022-10-29T05:06:39;14.30;;;9.03;;
19253;SDS011;9761;50.926;5.330;2022-10-29T05:09:06;15.10;;;8.83;;
19253;SDS011;9761;50.926;5.330;2022-10-29T05:11:35;17.73;;;8.83;;
19253;SDS011;9761;50.926;5.330;2022-10-29T05:14:02;17.47;;;9.67;;
19253;SDS011;9761;50.926;5.330;2022-10-29T05:16:29;15.77;;;9.37;;
19253;SDS011;9761;50.926;5.330;2022-10-29T05:18:57;18.57;;;9.07;;
19253;SDS011;9761;50.926;5.330;2022-10-29T05:21:24;14.07;;;8.33;;
19253;SDS011;9761;50.926;5.330;2022-10-29T05:23:51;16.47;;;8.80;;
19253;SDS011;9761;50.926;5.330;2022-10-29T05:26:29;14.77;;;8.53;;
19253;SDS011;9761;50.926;5.330;2022-10-29T05:28:57;12.40;;;8.43;;
19253;SDS011;9761;50.926;5.330;2022-10-29T05:31:28;16.10;;;8.37;;
19253;SDS011;9761;50.926;5.330;2022-10-29T05:33:55;10.80;;;7.97;;
19253;SDS011;9761;50.926;5.330;2022-10-29T05:36:22;14.67;;;7.80;;
19253;SDS011;9761;50.926;5.330;2022-10-29T05:38:50;19.87;;;8.67;;
19253;SDS011;9761;50.926;5.330;2022-10-29T05:41:17;12.87;;;7.63;;
19253;SDS011;9761;50.926;5.330;2022-10-29T05:43:49;13.67;;;7.60;;
19253;SDS011;9761;50.926;5.330;2022-10-29T05:46:32;16.20;;;7.57;;
19253;SDS011;9761;50.926;5.330;2022-10-29T05:48:59;13.70;;;8.33;;
19253;SDS011;9761;50.926;5.330;2022-10-29T05:51:28;14.03;;;7.23;;
19253;SDS011;9761;50.926;5.330;2022-10-29T05:53:55;15.33;;;7.97;;
19253;SDS011;9761;50.926;5.330;2022-10-29T05:56:28;14.73;;;8.20;;
19253;SDS011;9761;50.926;5.330;2022-10-29T05:58:55;14.67;;;8.23;;
19253;SDS011;9761;50.926;5.330;2022-10-29T06:01:24;19.57;;;7.73;;
19253;SDS011;9761;50.926;5.330;2022-10-29T06:03:53;16.93;;;8.57;;
19253;SDS011;9761;50.926;5.330;2022-10-29T06:06:20;14.37;;;7.27;;
19253;SDS011;9761;50.926;5.330;2022-10-29T06:08:49;19.93;;;7.70;;
19253;SDS011;9761;50.926;5.330;2022-10-29T06:11:17;14.90;;;7.30;;
19253;SDS011;9761;50.926;5.330;2022-10-29T06:13:44;15.73;;;8.83;;
19253;SDS011;9761;50.926;5.330;2022-10-29T06:16:11;14.00;;;8.20;;
19253;SDS011;9761;50.926;5.330;2022-10-29T06:18:38;14.83;;;7.83;;
19253;SDS011;9761;50.926;5.330;2022-10-29T06:21:07;13.37;;;7.57;;
19253;SDS011;9761;50.926;5.330;2022-10-29T06:23:34;14.50;;;7.97;;
19253;SDS011;9761;50.926;5.330;2022-10-29T06:26:01;13.57;;;7.60;;
19253;SDS011;9761;50.926;5.330;2022-10-29T06:28:29;16.17;;;7.73;;
19253;SDS011;9761;50.926;5.330;2022-10-29T06:30:59;14.53;;;7.90;;
19253;SDS011;9761;50.926;5.330;2022-10-29T06:33:26;12.40;;;7.70;;
19253;SDS011;9761;50.926;5.330;2022-10-29T06:35:56;14.30;;;7.67;;
19253;SDS011;9761;50.926;5.330;2022-10-29T06:38:25;15.80;;;8.07;;
19253;SDS011;9761;50.926;5.330;2022-10-29T06:40:52;17.63;;;7.70;;
19253;SDS011;9761;50.926;5.330;2022-10-29T06:43:19;17.40;;;7.97;;
19253;SDS011;9761;50.926;5.330;2022-10-29T06:45:47;13.70;;;7.27;;
19253;SDS011;9761;50.926;5.330;2022-10-29T06:48:16;15.97;;;10.10;;
19253;SDS011;9761;50.926;5.330;2022-10-29T06:50:44;15.63;;;7.37;;
19253;SDS011;9761;50.926;5.330;2022-10-29T06:53:12;13.30;;;8.17;;
19253;SDS011;9761;50.926;5.330;2022-10-29T06:55:44;11.77;;;7.93;;
19253;SDS011;9761;50.926;5.330;2022-10-29T06:58:12;13.23;;;7.83;;
19253;SDS011;9761;50.926;5.330;2022-10-29T07:00:42;13.53;;;7.57;;
19253;SDS011;9761;50.926;5.330;2022-10-29T07:03:13;14.33;;;7.40;;
19253;SDS011;9761;50.926;5.330;2022-10-29T07:05:42;16.27;;;8.27;;
19253;SDS011;9761;50.926;5.330;2022-10-29T07:08:09;12.40;;;7.40;;
19253;SDS011;9761;50.926;5.330;2022-10-29T07:10:37;15.43;;;7.30;;
19253;SDS011;9761;50.926;5.330;2022-10-29T07:13:09;15.30;;;7.43;;
19253;SDS011;9761;50.926;5.330;2022-10-29T07:15:36;11.73;;;7.00;;
19253;SDS011;9761;50.926;5.330;2022-10-29T07:18:04;14.50;;;6.50;;
19253;SDS011;9761;50.926;5.330;2022-10-29T07:20:33;13.83;;;7.73;;
19253;SDS011;9761;50.926;5.330;2022-10-29T07:23:02;17.07;;;9.17;;
19253;SDS011;9761;50.926;5.330;2022-10-29T07:25:30;11.03;;;6.70;;
19253;SDS011;9761;50.926;5.330;2022-10-29T07:28:03;14.33;;;6.97;;
19253;SDS011;9761;50.926;5.330;2022-10-29T07:30:33;13.57;;;7.40;;
19253;SDS011;9761;50.926;5.330;2022-10-29T07:33:00;15.60;;;7.67;;
19253;SDS011;9761;50.926;5.330;2022-10-29T07:35:27;14.20;;;6.90;;
19253;SDS011;9761;50.926;5.330;2022-10-29T07:37:57;13.63;;;6.77;;
19253;SDS011;9761;50.926;5.330;2022-10-29T07:40:24;14.67;;;6.73;;
19253;SDS011;9761;50.926;5.330;2022-10-29T07:42:51;11.73;;;6.23;;
19253;SDS011;9761;50.926;5.330;2022-10-29T07:45:18;14.13;;;6.90;;
19253;SDS011;9761;50.926;5.330;2022-10-29T07:47:47;10.23;;;6.37;;
19253;SDS011;9761;50.926;5.330;2022-10-29T07:50:14;12.23;;;6.47;;
19253;SDS011;9761;50.926;5.330;2022-10-29T07:52:41;12.13;;;6.40;;
19253;SDS011;9761;50.926;5.330;2022-10-29T07:55:08;13.57;;;6.37;;
19253;SDS011;9761;50.926;5.330;2022-10-29T07:57:37;14.20;;;6.77;;
19253;SDS011;9761;50.926;5.330;2022-10-29T08:00:05;15.47;;;6.53;;
19253;SDS011;9761;50.926;5.330;2022-10-29T08:02:33;11.93;;;6.27;;
19253;SDS011;9761;50.926;5.330;2022-10-29T08:05:02;18.70;;;6.70;;
19253;SDS011;9761;50.926;5.330;2022-10-29T08:07:31;12.87;;;6.27;;
19253;SDS011;9761;50.926;5.330;2022-10-29T08:09:58;11.80;;;6.00;;
19253;SDS011;9761;50.926;5.330;2022-10-29T08:12:25;14.03;;;6.43;;
19253;SDS011;9761;50.926;5.330;2022-10-29T08:14:53;12.33;;;6.17;;
19253;SDS011;9761;50.926;5.330;2022-10-29T08:17:22;15.97;;;6.73;;
19253;SDS011;9761;50.926;5.330;2022-10-29T08:19:49;10.83;;;6.50;;
19253;SDS011;9761;50.926;5.330;2022-10-29T08:22:17;13.00;;;6.23;;
19253;SDS011;9761;50.926;5.330;2022-10-29T08:24:44;10.00;;;5.80;;
19253;SDS011;9761;50.926;5.330;2022-10-29T08:27:10;14.27;;;5.93;;
19253;SDS011;9761;50.926;5.330;2022-10-29T08:29:37;13.23;;;5.77;;
19253;SDS011;9761;50.926;5.330;2022-10-29T08:32:04;9.47;;;5.30;;
19253;SDS011;9761;50.926;5.330;2022-10-29T08:34:31;8.50;;;5.10;;
19253;SDS011;9761;50.926;5.330;2022-10-29T08:36:58;9.67;;;5.03;;
19253;SDS011;9761;50.926;5.330;2022-10-29T08:39:26;8.50;;;5.13;;
19253;SDS011;9761;50.926;5.330;2022-10-29T08:41:58;7.73;;;5.10;;
19253;SDS011;9761;50.926;5.330;2022-10-29T08:47:35;9.77;;;5.33;;
19253;SDS011;9761;50.926;5.330;2022-10-29T08:50:14;8.53;;;4.83;;
19253;SDS011;9761;50.926;5.330;2022-10-29T08:52:45;9.50;;;4.63;;
19253;SDS011;9761;50.926;5.330;2022-10-29T08:55:15;8.97;;;4.53;;
19253;SDS011;9761;50.926;5.330;2022-10-29T08:57:46;9.27;;;4.17;;
19253;SDS011;9761;50.926;5.330;2022-10-29T09:00:17;11.10;;;4.67;;
19253;SDS011;9761;50.926;5.330;2022-10-29T09:02:56;7.27;;;4.73;;
19253;SDS011;9761;50.926;5.330;2022-10-29T09:05:25;9.60;;;5.00;;
19253;SDS011;9761;50.926;5.330;2022-10-29T09:08:00;9.33;;;5.07;;
19253;SDS011;9761;50.926;5.330;2022-10-29T09:10:39;9.70;;;4.70;;
19253;SDS011;9761;50.926;5.330;2022-10-29T09:16:09;8.20;;;4.17;;
19253;SDS011;9761;50.926;5.330;2022-10-29T09:18:49;10.80;;;4.23;;
19253;SDS011;9761;50.926;5.330;2022-10-29T09:21:32;9.07;;;4.30;;
19253;SDS011;9761;50.926;5.330;2022-10-29T09:24:07;11.33;;;4.37;;
19253;SDS011;9761;50.926;5.330;2022-10-29T09:26:46;11.00;;;4.70;;
19253;SDS011;9761;50.926;5.330;2022-10-29T09:29:25;10.07;;;5.00;;
19253;SDS011;9761;50.926;5.330;2022-10-29T09:32:04;7.77;;;4.90;;
19253;SDS011;9761;50.926;5.330;2022-10-29T09:34:40;8.73;;;4.37;;
19253;SDS011;9761;50.926;5.330;2022-10-29T09:37:12;10.57;;;4.57;;
19253;SDS011;9761;50.926;5.330;2022-10-29T09:39:41;11.43;;;4.40;;
19253;SDS011;9761;50.926;5.330;2022-10-29T09:42:14;11.07;;;4.53;;
19253;SDS011;9761;50.926;5.330;2022-10-29T09:44:50;9.83;;;4.33;;
19253;SDS011;9761;50.926;5.330;2022-10-29T09:47:24;9.17;;;3.73;;
19253;SDS011;9761;50.926;5.330;2022-10-29T09:50:03;11.33;;;4.60;;
19253;SDS011;9761;50.926;5.330;2022-10-29T09:52:39;9.40;;;5.70;;
19253;SDS011;9761;50.926;5.330;2022-10-29T09:55:14;9.33;;;4.80;;
19253;SDS011;9761;50.926;5.330;2022-10-29T09:57:47;9.60;;;4.43;;
19253;SDS011;9761;50.926;5.330;2022-10-29T10:00:19;11.33;;;4.50;;
19253;SDS011;9761;50.926;5.330;2022-10-29T10:02:48;8.67;;;4.33;;
19253;SDS011;9761;50.926;5.330;2022-10-29T10:05:22;8.57;;;4.60;;
19253;SDS011;9761;50.926;5.330;2022-10-29T10:10:35;13.70;;;4.23;;
19253;SDS011;9761;50.926;5.330;2022-10-29T10:13:18;11.47;;;3.70;;
19253;SDS011;9761;50.926;5.330;2022-10-29T10:15:48;16.43;;;5.03;;
19253;SDS011;9761;50.926;5.330;2022-10-29T10:18:18;13.40;;;4.40;;
19253;SDS011;9761;50.926;5.330;2022-10-29T10:20:47;8.13;;;4.10;;
19253;SDS011;9761;50.926;5.330;2022-10-29T10:23:26;7.80;;;4.20;;
19253;SDS011;9761;50.926;5.330;2022-10-29T10:25:56;6.13;;;3.40;;
19253;SDS011;9761;50.926;5.330;2022-10-29T10:28:27;8.67;;;4.90;;
19253;SDS011;9761;50.926;5.330;2022-10-29T10:31:09;7.50;;;3.67;;
19253;SDS011;9761;50.926;5.330;2022-10-29T10:33:43;7.10;;;3.77;;
19253;SDS011;9761;50.926;5.330;2022-10-29T10:36:17;10.83;;;3.53;;
19253;SDS011;9761;50.926;5.330;2022-10-29T10:38:49;9.60;;;3.93;;
19253;SDS011;9761;50.926;5.330;2022-10-29T10:41:22;11.50;;;4.23;;
19253;SDS011;9761;50.926;5.330;2022-10-29T10:43:53;13.10;;;4.43;;
19253;SDS011;9761;50.926;5.330;2022-10-29T10:46:23;12.33;;;4.60;;
19253;SDS011;9761;50.926;5.330;2022-10-29T10:48:55;7.10;;;3.90;;
19253;SDS011;9761;50.926;5.330;2022-10-29T10:51:25;11.37;;;4.77;;
19253;SDS011;9761;50.926;5.330;2022-10-29T10:53:54;8.47;;;3.80;;
19253;SDS011;9761;50.926;5.330;2022-10-29T10:56:23;8.60;;;3.87;;
19253;SDS011;9761;50.926;5.330;2022-10-29T10:59:02;5.57;;;3.37;;
19253;SDS011;9761;50.926;5.330;2022-10-29T11:01:34;9.07;;;4.37;;
19253;SDS011;9761;50.926;5.330;2022-10-29T11:04:09;9.93;;;4.30;;
19253;SDS011;9761;50.926;5.330;2022-10-29T11:06:40;8.97;;;3.37;;
19253;SDS011;9761;50.926;5.330;2022-10-29T11:09:12;7.73;;;3.70;;
19253;SDS011;9761;50.926;5.330;2022-10-29T11:11:46;14.37;;;3.27;;
19253;SDS011;9761;50.926;5.330;2022-10-29T11:14:21;5.67;;;4.00;;
19253;SDS011;9761;50.926;5.330;2022-10-29T11:16:54;9.83;;;3.93;;
19253;SDS011;9761;50.926;5.330;2022-10-29T11:19:27;11.03;;;3.77;;
19253;SDS011;9761;50.926;5.330;2022-10-29T11:22:01;8.33;;;3.80;;
19253;SDS011;9761;50.926;5.330;2022-10-29T11:24:43;9.20;;;3.67;;
19253;SDS011;9761;50.926;5.330;2022-10-29T11:27:28;9.30;;;3.43;;
19253;SDS011;9761;50.926;5.330;2022-10-29T11:30:08;9.47;;;3.90;;
19253;SDS011;9761;50.926;5.330;2022-10-29T11:32:43;10.97;;;3.37;;
19253;SDS011;9761;50.926;5.330;2022-10-29T11:35:19;9.20;;;3.70;;
19253;SDS011;9761;50.926;5.330;2022-10-29T11:37:57;10.27;;;2.90;;
19253;SDS011;9761;50.926;5.330;2022-10-29T11:40:31;7.63;;;3.57;;
19253;SDS011;9761;50.926;5.330;2022-10-29T11:43:07;11.27;;;3.80;;
19253;SDS011;9761;50.926;5.330;2022-10-29T11:45:46;10.13;;;3.10;;
19253;SDS011;9761;50.926;5.330;2022-10-29T11:48:27;11.13;;;4.13;;
19253;SDS011;9761;50.926;5.330;2022-10-29T11:51:05;9.30;;;3.27;;
19253;SDS011;9761;50.926;5.330;2022-10-29T11:53:50;9.17;;;4.37;;
19253;SDS011;9761;50.926;5.330;2022-10-29T11:56:26;8.43;;;3.47;;
19253;SDS011;9761;50.926;5.330;2022-10-29T11:59:10;6.27;;;3.90;;
19253;SDS011;9761;50.926;5.330;2022-10-29T12:01:47;8.40;;;3.47;;
19253;SDS011;9761;50.926;5.330;2022-10-29T12:04:28;6.67;;;3.20;;
19253;SDS011;9761;50.926;5.330;2022-10-29T12:07:03;8.60;;;3.20;;
19253;SDS011;9761;50.926;5.330;2022-10-29T12:09:56;13.53;;;3.30;;
19253;SDS011;9761;50.926;5.330;2022-10-29T12:12:37;13.30;;;3.73;;
19253;SDS011;9761;50.926;5.330;2022-10-29T12:15:12;9.43;;;3.40;;
19253;SDS011;9761;50.926;5.330;2022-10-29T12:17:50;8.57;;;3.23;;
19253;SDS011;9761;50.926;5.330;2022-10-29T12:20:26;7.87;;;3.80;;
19253;SDS011;9761;50.926;5.330;2022-10-29T12:23:05;9.73;;;3.30;;
19253;SDS011;9761;50.926;5.330;2022-10-29T12:25:46;10.80;;;3.53;;
19253;SDS011;9761;50.926;5.330;2022-10-29T12:28:21;6.33;;;3.33;;
19253;SDS011;9761;50.926;5.330;2022-10-29T12:31:03;6.93;;;3.33;;
19253;SDS011;9761;50.926;5.330;2022-10-29T12:33:41;10.30;;;3.73;;
19253;SDS011;9761;50.926;5.330;2022-10-29T12:36:17;7.37;;;3.10;;
19253;SDS011;9761;50.926;5.330;2022-10-29T12:38:54;8.37;;;3.37;;
19253;SDS011;9761;50.926;5.330;2022-10-29T12:41:24;8.27;;;3.27;;
19253;SDS011;9761;50.926;5.330;2022-10-29T12:43:57;7.97;;;3.20;;
19253;SDS011;9761;50.926;5.330;2022-10-29T12:46:34;8.73;;;3.00;;
19253;SDS011;9761;50.926;5.330;2022-10-29T12:49:06;6.97;;;3.40;;
19253;SDS011;9761;50.926;5.330;2022-10-29T12:51:42;8.23;;;3.10;;
19253;SDS011;9761;50.926;5.330;2022-10-29T12:54:18;6.87;;;2.80;;
19253;SDS011;9761;50.926;5.330;2022-10-29T12:56:52;6.67;;;2.77;;
19253;SDS011;9761;50.926;5.330;2022-10-29T12:59:27;9.20;;;3.07;;
19253;SDS011;9761;50.926;5.330;2022-10-29T13:02:23;5.97;;;3.17;;
19253;SDS011;9761;50.926;5.330;2022-10-29T13:08:21;7.37;;;3.00;;
19253;SDS011;9761;50.926;5.330;2022-10-29T13:10:54;8.90;;;3.60;;
19253;SDS011;9761;50.926;5.330;2022-10-29T13:16:17;5.57;;;3.23;;
19253;SDS011;9761;50.926;5.330;2022-10-29T13:21:58;7.83;;;3.40;;
19253;SDS011;9761;50.926;5.330;2022-10-29T13:24:28;9.70;;;3.57;;
19253;SDS011;9761;50.926;5.330;2022-10-29T13:27:02;6.43;;;3.20;;
19253;SDS011;9761;50.926;5.330;2022-10-29T13:29:40;7.27;;;3.13;;
19253;SDS011;9761;50.926;5.330;2022-10-29T13:34:55;7.47;;;3.00;;
19253;SDS011;9761;50.926;5.330;2022-10-29T13:43:39;7.83;;;3.90;;
19253;SDS011;9761;50.926;5.330;2022-10-29T13:46:20;7.00;;;3.33;;
19253;SDS011;9761;50.926;5.330;2022-10-29T13:49:07;10.80;;;3.83;;
19253;SDS011;9761;50.926;5.330;2022-10-29T13:54:25;13.53;;;4.27;;
19253;SDS011;9761;50.926;5.330;2022-10-29T13:56:59;9.00;;;3.30;;
19253;SDS011;9761;50.926;5.330;2022-10-29T13:59:33;10.30;;;3.30;;
19253;SDS011;9761;50.926;5.330;2022-10-29T14:02:13;10.53;;;3.20;;
19253;SDS011;9761;50.926;5.330;2022-10-29T14:04:47;8.70;;;3.20;;
19253;SDS011;9761;50.926;5.330;2022-10-29T14:07:17;6.70;;;3.50;;
19253;SDS011;9761;50.926;5.330;2022-10-29T14:09:52;7.00;;;3.37;;
19253;SDS011;9761;50.926;5.330;2022-10-29T14:12:23;11.40;;;3.87;;
19253;SDS011;9761;50.926;5.330;2022-10-29T14:14:57;10.27;;;3.37;;
19253;SDS011;9761;50.926;5.330;2022-10-29T14:17:28;7.07;;;3.23;;
19253;SDS011;9761;50.926;5.330;2022-10-29T14:19:55;8.70;;;3.10;;
19253;SDS011;9761;50.926;5.330;2022-10-29T14:22:29;7.67;;;3.70;;
19253;SDS011;9761;50.926;5.330;2022-10-29T14:25:00;8.30;;;3.80;;
19253;SDS011;9761;50.926;5.330;2022-10-29T14:27:29;8.80;;;3.10;;
19253;SDS011;9761;50.926;5.330;2022-10-29T14:30:11;7.60;;;3.57;;
19253;SDS011;9761;50.926;5.330;2022-10-29T14:32:40;6.67;;;3.53;;
19253;SDS011;9761;50.926;5.330;2022-10-29T14:35:12;6.03;;;3.27;;
19253;SDS011;9761;50.926;5.330;2022-10-29T14:37:40;7.57;;;3.17;;
19253;SDS011;9761;50.926;5.330;2022-10-29T14:40:14;6.70;;;3.30;;
19253;SDS011;9761;50.926;5.330;2022-10-29T14:42:47;10.77;;;3.80;;
19253;SDS011;9761;50.926;5.330;2022-10-29T14:45:19;10.93;;;5.10;;
19253;SDS011;9761;50.926;5.330;2022-10-29T14:47:49;11.80;;;5.17;;
19253;SDS011;9761;50.926;5.330;2022-10-29T14:50:22;8.57;;;4.73;;
19253;SDS011;9761;50.926;5.330;2022-10-29T14:52:51;9.80;;;5.33;;
19253;SDS011;9761;50.926;5.330;2022-10-29T14:55:21;12.23;;;7.07;;
19253;SDS011;9761;50.926;5.330;2022-10-29T14:57:54;13.27;;;5.60;;
19253;SDS011;9761;50.926;5.330;2022-10-29T15:00:26;9.30;;;4.60;;
19253;SDS011;9761;50.926;5.330;2022-10-29T15:02:56;11.90;;;4.50;;
19253;SDS011;9761;50.926;5.330;2022-10-29T15:05:24;8.03;;;4.40;;
19253;SDS011;9761;50.926;5.330;2022-10-29T15:10:44;10.77;;;4.37;;
19253;SDS011;9761;50.926;5.330;2022-10-29T15:13:23;11.10;;;4.30;;
19253;SDS011;9761;50.926;5.330;2022-10-29T15:15:58;10.73;;;4.20;;
19253;SDS011;9761;50.926;5.330;2022-10-29T15:18:29;10.20;;;4.00;;
19253;SDS011;9761;50.926;5.330;2022-10-29T15:21:02;8.20;;;3.87;;
19253;SDS011;9761;50.926;5.330;2022-10-29T15:23:31;10.60;;;4.00;;
19253;SDS011;9761;50.926;5.330;2022-10-29T15:26:01;8.10;;;4.20;;
19253;SDS011;9761;50.926;5.330;2022-10-29T15:28:36;6.40;;;3.57;;
19253;SDS011;9761;50.926;5.330;2022-10-29T15:31:05;10.93;;;3.87;;
19253;SDS011;9761;50.926;5.330;2022-10-29T15:33:40;7.93;;;4.00;;
19253;SDS011;9761;50.926;5.330;2022-10-29T15:36:08;9.27;;;4.37;;
19253;SDS011;9761;50.926;5.330;2022-10-29T15:41:35;7.93;;;4.30;;
19253;SDS011;9761;50.926;5.330;2022-10-29T15:44:24;11.00;;;4.80;;
19253;SDS011;9761;50.926;5.330;2022-10-29T15:46:58;7.53;;;4.00;;
19253;SDS011;9761;50.926;5.330;2022-10-29T15:49:26;8.10;;;3.40;;
19253;SDS011;9761;50.926;5.330;2022-10-29T15:51:54;8.43;;;3.57;;